sensor_id;sensor_type;location;lat;lon;timestamp;temperature;humidity
34877;DHT22;21086;44.780;17.194;2023-03-02T00:01:04;4.30;99.90
34877;DHT22;21086;44.780;17.194;2023-03-02T00:03:38;4.30;99.90
34877;DHT22;21086;44.780;17.194;2023-03-02T00:06:07;4.40;99.90
34877;DHT22;21086;44.780;17.194;2023-03-02T00:08:34;4.50;99.90
34877;DHT22;21086;44.780;17.194;2023-03-02T00:11:02;4.60;99.90
34877;DHT22;21086;44.780;17.194;2023-03-02T00:13:29;4.50;99.90
34877;DHT22;21086;44.780;17.194;2023-03-02T00:15:57;4.50;99.90
34877;DHT22;21086;44.780;17.194;2023-03-02T00:18:24;4.60;99.90
34877;DHT22;21086;44.780;17.194;2023-03-02T00:20:51;4.60;99.90
34877;DHT22;21086;44.780;17.194;2023-03-02T00:23:18;4.60;99.90
34877;DHT22;21086;44.780;17.194;2023-03-02T00:25:45;4.60;99.90
34877;DHT22;21086;44.780;17.194;2023-03-02T00:28:13;4.60;99.90
34877;DHT22;21086;44.780;17.194;2023-03-02T00:30:40;4.70;99.90
34877;DHT22;21086;44.780;17.194;2023-03-02T00:33:06;4.80;99.90
34877;DHT22;21086;44.780;17.194;2023-03-02T00:35:40;4.90;99.90
34877;DHT22;21086;44.780;17.194;2023-03-02T00:38:07;5.00;99.90
34877;DHT22;21086;44.780;17.194;2023-03-02T00:40:35;4.80;99.90
34877;DHT22;21086;44.780;17.194;2023-03-02T00:43:02;4.90;99.90
34877;DHT22;21086;44.780;17.194;2023-03-02T00:45:29;4.80;99.90
34877;DHT22;21086;44.780;17.194;2023-03-02T00:47:56;4.80;99.90
34877;DHT22;21086;44.780;17.194;2023-03-02T00:50:23;4.90;99.90
34877;DHT22;21086;44.780;17.194;2023-03-02T00:52:50;4.90;99.90
34877;DHT22;21086;44.780;17.194;2023-03-02T00:55:17;4.90;99.90
34877;DHT22;21086;44.780;17.194;2023-03-02T00:57:44;4.90;99.90
34877;DHT22;21086;44.780;17.194;2023-03-02T01:00:11;4.70;99.90
34877;DHT22;21086;44.780;17.194;2023-03-02T01:02:37;4.70;99.90
34877;DHT22;21086;44.780;17.194;2023-03-02T01:05:10;4.70;99.90
34877;DHT22;21086;44.780;17.194;2023-03-02T01:07:36;4.50;99.90
34877;DHT22;21086;44.780;17.194;2023-03-02T01:10:05;4.40;99.90
34877;DHT22;21086;44.780;17.194;2023-03-02T01:12:32;4.50;99.90
34877;DHT22;21086;44.780;17.194;2023-03-02T01:14:59;4.50;99.90
34877;DHT22;21086;44.780;17.194;2023-03-02T01:17:27;4.60;99.90
34877;DHT22;21086;44.780;17.194;2023-03-02T01:19:54;4.50;99.90
34877;DHT22;21086;44.780;17.194;2023-03-02T01:22:20;4.60;99.90
34877;DHT22;21086;44.780;17.194;2023-03-02T01:24:48;4.60;99.90
34877;DHT22;21086;44.780;17.194;2023-03-02T01:27:15;4.60;99.90
34877;DHT22;21086;44.780;17.194;2023-03-02T01:29:42;4.60;99.90
34877;DHT22;21086;44.780;17.194;2023-03-02T01:32:10;4.70;99.90
34877;DHT22;21086;44.780;17.194;2023-03-02T01:34:37;4.80;99.90
34877;DHT22;21086;44.780;17.194;2023-03-02T01:37:04;4.70;99.90
34877;DHT22;21086;44.780;17.194;2023-03-02T01:39:31;4.80;99.90
34877;DHT22;21086;44.780;17.194;2023-03-02T01:41:58;4.90;99.90
34877;DHT22;21086;44.780;17.194;2023-03-02T01:44:55;4.90;99.90
34877;DHT22;21086;44.780;17.194;2023-03-02T01:47:37;4.80;99.90
34877;DHT22;21086;44.780;17.194;2023-03-02T01:50:19;4.90;99.90
34877;DHT22;21086;44.780;17.194;2023-03-02T01:52:49;5.00;99.90
34877;DHT22;21086;44.780;17.194;2023-03-02T01:55:20;5.00;99.90
34877;DHT22;21086;44.780;17.194;2023-03-02T01:57:52;5.00;99.90
34877;DHT22;21086;44.780;17.194;2023-03-02T02:00:27;5.10;99.90
34877;DHT22;21086;44.780;17.194;2023-03-02T02:02:59;5.20;99.90
34877;DHT22;21086;44.780;17.194;2023-03-02T02:05:39;5.10;99.90
34877;DHT22;21086;44.780;17.194;2023-03-02T02:08:08;5.20;99.90
34877;DHT22;21086;44.780;17.194;2023-03-02T02:10:35;5.20;99.90
34877;DHT22;21086;44.780;17.194;2023-03-02T02:13:02;5.30;99.90
34877;DHT22;21086;44.780;17.194;2023-03-02T02:15:29;5.30;99.90
34877;DHT22;21086;44.780;17.194;2023-03-02T02:17:56;5.30;99.90
34877;DHT22;21086;44.780;17.194;2023-03-02T02:20:35;5.20;99.90
34877;DHT22;21086;44.780;17.194;2023-03-02T02:25:45;5.30;99.90
34877;DHT22;21086;44.780;17.194;2023-03-02T02:30:49;5.30;99.90
34877;DHT22;21086;44.780;17.194;2023-03-02T02:33:21;5.30;99.90
34877;DHT22;21086;44.780;17.194;2023-03-02T02:35:53;5.30;99.90
34877;DHT22;21086;44.780;17.194;2023-03-02T02:38:21;5.30;99.90
34877;DHT22;21086;44.780;17.194;2023-03-02T02:40:54;5.40;99.90
34877;DHT22;21086;44.780;17.194;2023-03-02T02:43:22;5.40;99.90
34877;DHT22;21086;44.780;17.194;2023-03-02T02:45:52;5.30;99.90
34877;DHT22;21086;44.780;17.194;2023-03-02T02:48:22;5.30;99.90
34877;DHT22;21086;44.780;17.194;2023-03-02T02:50:53;5.30;99.90
34877;DHT22;21086;44.780;17.194;2023-03-02T02:53:40;5.30;99.90
34877;DHT22;21086;44.780;17.194;2023-03-02T02:56:10;5.20;99.90
34877;DHT22;21086;44.780;17.194;2023-03-02T02:58:49;5.20;99.90
34877;DHT22;21086;44.780;17.194;2023-03-02T03:01:19;5.20;99.90
34877;DHT22;21086;44.780;17.194;2023-03-02T03:03:57;5.30;99.90
34877;DHT22;21086;44.780;17.194;2023-03-02T03:06:28;5.40;99.90
34877;DHT22;21086;44.780;17.194;2023-03-02T03:09:09;5.40;99.90
34877;DHT22;21086;44.780;17.194;2023-03-02T03:11:40;5.40;99.90
34877;DHT22;21086;44.780;17.194;2023-03-02T03:14:10;5.40;99.90
34877;DHT22;21086;44.780;17.194;2023-03-02T03:16:40;5.40;99.90
34877;DHT22;21086;44.780;17.194;2023-03-02T03:19:21;5.40;99.90
34877;DHT22;21086;44.780;17.194;2023-03-02T03:21:51;5.40;99.90
34877;DHT22;21086;44.780;17.194;2023-03-02T03:24:19;5.40;99.90
34877;DHT22;21086;44.780;17.194;2023-03-02T03:26:48;5.30;99.90
34877;DHT22;21086;44.780;17.194;2023-03-02T03:29:16;5.20;99.90
34877;DHT22;21086;44.780;17.194;2023-03-02T03:31:43;5.20;99.90
34877;DHT22;21086;44.780;17.194;2023-03-02T03:34:10;5.10;99.90
34877;DHT22;21086;44.780;17.194;2023-03-02T03:36:37;4.80;99.90
34877;DHT22;21086;44.780;17.194;2023-03-02T03:39:05;4.80;99.90
34877;DHT22;21086;44.780;17.194;2023-03-02T03:41:32;4.70;99.90
34877;DHT22;21086;44.780;17.194;2023-03-02T03:43:59;4.50;99.90
34877;DHT22;21086;44.780;17.194;2023-03-02T03:46:27;4.40;99.90
34877;DHT22;21086;44.780;17.194;2023-03-02T03:48:55;4.50;99.90
34877;DHT22;21086;44.780;17.194;2023-03-02T03:51:24;4.60;99.90
34877;DHT22;21086;44.780;17.194;2023-03-02T03:53:51;4.70;99.90
34877;DHT22;21086;44.780;17.194;2023-03-02T03:56:33;4.80;99.90
34877;DHT22;21086;44.780;17.194;2023-03-02T03:59:02;4.90;99.90
34877;DHT22;21086;44.780;17.194;2023-03-02T04:01:40;4.90;99.90
34877;DHT22;21086;44.780;17.194;2023-03-02T04:04:13;4.90;99.90
34877;DHT22;21086;44.780;17.194;2023-03-02T04:06:41;5.10;99.90
34877;DHT22;21086;44.780;17.194;2023-03-02T04:09:08;5.10;99.90
34877;DHT22;21086;44.780;17.194;2023-03-02T04:11:38;5.20;99.90
34877;DHT22;21086;44.780;17.194;2023-03-02T04:14:06;5.20;99.90
34877;DHT22;21086;44.780;17.194;2023-03-02T04:16:35;5.30;99.90
34877;DHT22;21086;44.780;17.194;2023-03-02T04:19:03;5.30;99.90
34877;DHT22;21086;44.780;17.194;2023-03-02T04:21:40;5.30;99.90
34877;DHT22;21086;44.780;17.194;2023-03-02T04:24:08;5.40;99.90
34877;DHT22;21086;44.780;17.194;2023-03-02T04:26:36;5.50;99.90
34877;DHT22;21086;44.780;17.194;2023-03-02T04:29:04;5.50;99.90
34877;DHT22;21086;44.780;17.194;2023-03-02T04:31:31;5.50;99.90
34877;DHT22;21086;44.780;17.194;2023-03-02T04:33:58;5.50;99.90
34877;DHT22;21086;44.780;17.194;2023-03-02T04:36:26;5.50;99.90
34877;DHT22;21086;44.780;17.194;2023-03-02T04:38:53;5.50;99.90
34877;DHT22;21086;44.780;17.194;2023-03-02T04:41:20;5.50;99.90
34877;DHT22;21086;44.780;17.194;2023-03-02T04:43:47;5.40;99.90
34877;DHT22;21086;44.780;17.194;2023-03-02T04:46:18;5.40;99.90
34877;DHT22;21086;44.780;17.194;2023-03-02T04:48:45;5.30;99.90
34877;DHT22;21086;44.780;17.194;2023-03-02T04:51:18;5.30;99.90
34877;DHT22;21086;44.780;17.194;2023-03-02T04:53:55;5.30;99.90
34877;DHT22;21086;44.780;17.194;2023-03-02T04:56:22;5.20;99.90
34877;DHT22;21086;44.780;17.194;2023-03-02T04:58:49;5.20;99.90
34877;DHT22;21086;44.780;17.194;2023-03-02T05:01:17;5.20;99.90
34877;DHT22;21086;44.780;17.194;2023-03-02T05:03:45;5.30;99.90
34877;DHT22;21086;44.780;17.194;2023-03-02T05:06:12;5.20;99.90
34877;DHT22;21086;44.780;17.194;2023-03-02T05:08:39;5.30;99.90
34877;DHT22;21086;44.780;17.194;2023-03-02T05:11:07;5.20;99.90
34877;DHT22;21086;44.780;17.194;2023-03-02T05:13:34;5.20;99.90
34877;DHT22;21086;44.780;17.194;2023-03-02T05:16:01;5.10;99.90
34877;DHT22;21086;44.780;17.194;2023-03-02T05:18:29;4.90;99.90
34877;DHT22;21086;44.780;17.194;2023-03-02T05:20:56;5.00;99.90
34877;DHT22;21086;44.780;17.194;2023-03-02T05:23:23;5.10;99.90
34877;DHT22;21086;44.780;17.194;2023-03-02T05:25:53;5.10;99.90
34877;DHT22;21086;44.780;17.194;2023-03-02T05:28:22;5.20;99.90
34877;DHT22;21086;44.780;17.194;2023-03-02T05:30:50;5.20;99.90
34877;DHT22;21086;44.780;17.194;2023-03-02T05:33:18;5.20;99.90
34877;DHT22;21086;44.780;17.194;2023-03-02T05:35:45;5.30;99.90
34877;DHT22;21086;44.780;17.194;2023-03-02T05:38:13;5.40;99.90
34877;DHT22;21086;44.780;17.194;2023-03-02T05:40:43;5.50;99.90
34877;DHT22;21086;44.780;17.194;2023-03-02T05:43:15;6.70;99.90
34877;DHT22;21086;44.780;17.194;2023-03-02T05:45:43;5.50;99.90
34877;DHT22;21086;44.780;17.194;2023-03-02T05:48:11;5.60;99.90
34877;DHT22;21086;44.780;17.194;2023-03-02T05:50:39;5.70;99.90
34877;DHT22;21086;44.780;17.194;2023-03-02T05:53:06;5.70;99.90
34877;DHT22;21086;44.780;17.194;2023-03-02T05:55:33;5.70;99.90
34877;DHT22;21086;44.780;17.194;2023-03-02T05:58:08;5.70;99.90
34877;DHT22;21086;44.780;17.194;2023-03-02T06:00:37;5.70;99.90
34877;DHT22;21086;44.780;17.194;2023-03-02T06:03:04;5.70;99.90
34877;DHT22;21086;44.780;17.194;2023-03-02T06:05:31;5.70;99.90
34877;DHT22;21086;44.780;17.194;2023-03-02T06:07:58;5.80;99.90
34877;DHT22;21086;44.780;17.194;2023-03-02T06:10:25;5.80;99.90
34877;DHT22;21086;44.780;17.194;2023-03-02T06:12:52;5.80;99.90
34877;DHT22;21086;44.780;17.194;2023-03-02T06:15:19;5.90;99.90
34877;DHT22;21086;44.780;17.194;2023-03-02T06:17:46;5.90;99.90
34877;DHT22;21086;44.780;17.194;2023-03-02T06:20:14;5.80;99.90
34877;DHT22;21086;44.780;17.194;2023-03-02T06:22:45;5.80;99.90
34877;DHT22;21086;44.780;17.194;2023-03-02T06:25:15;5.70;99.90
34877;DHT22;21086;44.780;17.194;2023-03-02T06:27:43;5.80;99.90
34877;DHT22;21086;44.780;17.194;2023-03-02T06:30:13;5.70;99.90
34877;DHT22;21086;44.780;17.194;2023-03-02T06:32:41;5.70;99.90
34877;DHT22;21086;44.780;17.194;2023-03-02T06:35:09;5.80;99.90
34877;DHT22;21086;44.780;17.194;2023-03-02T06:37:36;5.80;99.90
34877;DHT22;21086;44.780;17.194;2023-03-02T06:40:05;5.90;99.90
34877;DHT22;21086;44.780;17.194;2023-03-02T06:42:35;6.00;99.90
34877;DHT22;21086;44.780;17.194;2023-03-02T06:45:01;6.00;99.90
34877;DHT22;21086;44.780;17.194;2023-03-02T06:47:28;5.80;99.90
34877;DHT22;21086;44.780;17.194;2023-03-02T06:49:56;5.80;99.90
34877;DHT22;21086;44.780;17.194;2023-03-02T06:52:23;5.90;99.90
34877;DHT22;21086;44.780;17.194;2023-03-02T06:54:50;5.90;99.90
34877;DHT22;21086;44.780;17.194;2023-03-02T06:57:17;6.10;99.90
34877;DHT22;21086;44.780;17.194;2023-03-02T06:59:44;6.20;99.90
34877;DHT22;21086;44.780;17.194;2023-03-02T07:02:11;6.30;99.90
34877;DHT22;21086;44.780;17.194;2023-03-02T07:04:41;6.40;99.90
34877;DHT22;21086;44.780;17.194;2023-03-02T07:07:08;6.40;99.90
34877;DHT22;21086;44.780;17.194;2023-03-02T07:09:35;6.40;99.90
34877;DHT22;21086;44.780;17.194;2023-03-02T07:12:02;6.50;99.90
34877;DHT22;21086;44.780;17.194;2023-03-02T07:14:29;6.60;99.90
34877;DHT22;21086;44.780;17.194;2023-03-02T07:16:55;6.70;99.90
34877;DHT22;21086;44.780;17.194;2023-03-02T07:19:23;6.80;99.90
34877;DHT22;21086;44.780;17.194;2023-03-02T07:21:50;6.90;99.90
34877;DHT22;21086;44.780;17.194;2023-03-02T07:24:17;6.80;99.90
34877;DHT22;21086;44.780;17.194;2023-03-02T07:26:44;7.00;99.90
34877;DHT22;21086;44.780;17.194;2023-03-02T07:29:12;7.10;99.90
34877;DHT22;21086;44.780;17.194;2023-03-02T07:31:39;7.20;99.90
34877;DHT22;21086;44.780;17.194;2023-03-02T07:34:06;7.30;99.90
34877;DHT22;21086;44.780;17.194;2023-03-02T07:36:33;7.40;99.90
34877;DHT22;21086;44.780;17.194;2023-03-02T07:39:02;7.50;99.90
34877;DHT22;21086;44.780;17.194;2023-03-02T07:41:29;7.60;99.90
34877;DHT22;21086;44.780;17.194;2023-03-02T07:43:56;7.50;99.90
34877;DHT22;21086;44.780;17.194;2023-03-02T07:46:22;7.60;99.90
34877;DHT22;21086;44.780;17.194;2023-03-02T07:48:50;7.60;99.90
34877;DHT22;21086;44.780;17.194;2023-03-02T07:51:17;7.60;99.90
34877;DHT22;21086;44.780;17.194;2023-03-02T07:53:43;7.50;99.90
34877;DHT22;21086;44.780;17.194;2023-03-02T07:56:11;7.40;99.90
34877;DHT22;21086;44.780;17.194;2023-03-02T07:58:38;7.50;99.90
34877;DHT22;21086;44.780;17.194;2023-03-02T08:01:05;7.60;99.90
34877;DHT22;21086;44.780;17.194;2023-03-02T08:03:32;7.60;99.90
34877;DHT22;21086;44.780;17.194;2023-03-02T08:06:07;7.60;99.90
34877;DHT22;21086;44.780;17.194;2023-03-02T08:08:35;7.60;99.90
34877;DHT22;21086;44.780;17.194;2023-03-02T08:11:08;7.60;99.90
34877;DHT22;21086;44.780;17.194;2023-03-02T08:13:36;7.60;99.90
34877;DHT22;21086;44.780;17.194;2023-03-02T08:16:05;7.70;99.90
34877;DHT22;21086;44.780;17.194;2023-03-02T08:18:33;7.80;99.90
34877;DHT22;21086;44.780;17.194;2023-03-02T08:21:00;7.90;99.90
34877;DHT22;21086;44.780;17.194;2023-03-02T08:23:28;7.90;99.90
34877;DHT22;21086;44.780;17.194;2023-03-02T08:25:55;7.80;99.90
34877;DHT22;21086;44.780;17.194;2023-03-02T08:28:22;7.80;99.90
34877;DHT22;21086;44.780;17.194;2023-03-02T08:30:59;7.90;99.90
34877;DHT22;21086;44.780;17.194;2023-03-02T08:33:28;8.00;99.90
34877;DHT22;21086;44.780;17.194;2023-03-02T08:35:59;8.20;99.90
34877;DHT22;21086;44.780;17.194;2023-03-02T08:38:28;8.30;99.90
34877;DHT22;21086;44.780;17.194;2023-03-02T08:40:58;8.40;99.90
34877;DHT22;21086;44.780;17.194;2023-03-02T08:43:27;8.30;99.90
34877;DHT22;21086;44.780;17.194;2023-03-02T08:45:55;8.30;99.90
34877;DHT22;21086;44.780;17.194;2023-03-02T08:48:25;8.50;99.90
34877;DHT22;21086;44.780;17.194;2023-03-02T08:51:00;8.60;99.90
34877;DHT22;21086;44.780;17.194;2023-03-02T08:53:30;8.70;99.90
34877;DHT22;21086;44.780;17.194;2023-03-02T08:55:57;8.70;99.90
34877;DHT22;21086;44.780;17.194;2023-03-02T08:58:25;8.80;99.90
34877;DHT22;21086;44.780;17.194;2023-03-02T09:00:52;8.90;99.90
34877;DHT22;21086;44.780;17.194;2023-03-02T09:03:19;9.00;99.90
34877;DHT22;21086;44.780;17.194;2023-03-02T09:05:45;9.10;99.90
34877;DHT22;21086;44.780;17.194;2023-03-02T09:08:13;9.20;99.90
34877;DHT22;21086;44.780;17.194;2023-03-02T09:10:40;9.20;99.90
34877;DHT22;21086;44.780;17.194;2023-03-02T09:13:07;9.30;99.90
34877;DHT22;21086;44.780;17.194;2023-03-02T09:15:34;9.40;99.90
34877;DHT22;21086;44.780;17.194;2023-03-02T09:18:01;9.40;99.90
34877;DHT22;21086;44.780;17.194;2023-03-02T09:20:28;9.50;99.90
34877;DHT22;21086;44.780;17.194;2023-03-02T09:22:55;9.70;99.90
34877;DHT22;21086;44.780;17.194;2023-03-02T09:25:21;9.80;99.90
34877;DHT22;21086;44.780;17.194;2023-03-02T09:27:49;9.80;99.90
34877;DHT22;21086;44.780;17.194;2023-03-02T09:30:15;9.90;99.90
34877;DHT22;21086;44.780;17.194;2023-03-02T09:32:42;10.20;99.90
34877;DHT22;21086;44.780;17.194;2023-03-02T09:35:10;10.50;99.90
34877;DHT22;21086;44.780;17.194;2023-03-02T09:37:37;10.60;99.90
34877;DHT22;21086;44.780;17.194;2023-03-02T09:40:21;10.50;99.90
34877;DHT22;21086;44.780;17.194;2023-03-02T09:43:01;10.70;99.90
34877;DHT22;21086;44.780;17.194;2023-03-02T09:45:50;10.60;99.90
34877;DHT22;21086;44.780;17.194;2023-03-02T09:53:33;10.80;99.90
34877;DHT22;21086;44.780;17.194;2023-03-02T09:56:01;11.00;99.90
34877;DHT22;21086;44.780;17.194;2023-03-02T09:58:34;11.20;99.90
34877;DHT22;21086;44.780;17.194;2023-03-02T10:01:08;11.20;99.90
34877;DHT22;21086;44.780;17.194;2023-03-02T10:03:44;11.30;99.90
34877;DHT22;21086;44.780;17.194;2023-03-02T10:06:13;11.50;99.90
34877;DHT22;21086;44.780;17.194;2023-03-02T10:08:40;11.50;99.90
34877;DHT22;21086;44.780;17.194;2023-03-02T10:14:03;11.50;99.90
34877;DHT22;21086;44.780;17.194;2023-03-02T10:19:48;11.40;99.90
34877;DHT22;21086;44.780;17.194;2023-03-02T10:27:41;11.00;99.90
34877;DHT22;21086;44.780;17.194;2023-03-02T10:30:32;10.90;99.90
34877;DHT22;21086;44.780;17.194;2023-03-02T10:33:03;10.90;99.90
34877;DHT22;21086;44.780;17.194;2023-03-02T10:35:36;10.90;99.90
34877;DHT22;21086;44.780;17.194;2023-03-02T10:38:24;10.80;99.90
34877;DHT22;21086;44.780;17.194;2023-03-02T10:41:02;10.70;99.90
34877;DHT22;21086;44.780;17.194;2023-03-02T10:46:11;10.60;99.90
34877;DHT22;21086;44.780;17.194;2023-03-02T10:48:58;10.60;99.90
34877;DHT22;21086;44.780;17.194;2023-03-02T10:51:27;10.60;99.90
34877;DHT22;21086;44.780;17.194;2023-03-02T10:54:13;10.60;99.90
34877;DHT22;21086;44.780;17.194;2023-03-02T10:56:43;10.60;99.90
34877;DHT22;21086;44.780;17.194;2023-03-02T10:59:45;10.30;99.90
34877;DHT22;21086;44.780;17.194;2023-03-02T11:02:22;9.90;99.90
34877;DHT22;21086;44.780;17.194;2023-03-02T11:05:20;9.70;99.90
34877;DHT22;21086;44.780;17.194;2023-03-02T11:07:56;9.50;99.90
34877;DHT22;21086;44.780;17.194;2023-03-02T11:10:36;9.50;99.90
34877;DHT22;21086;44.780;17.194;2023-03-02T11:13:21;9.50;99.90
34877;DHT22;21086;44.780;17.194;2023-03-02T11:15:52;9.60;99.90
34877;DHT22;21086;44.780;17.194;2023-03-02T11:19:11;9.70;99.90
34877;DHT22;21086;44.780;17.194;2023-03-02T11:24:21;9.60;99.90
34877;DHT22;21086;44.780;17.194;2023-03-02T11:26:59;9.50;99.90
34877;DHT22;21086;44.780;17.194;2023-03-02T11:29:36;9.20;99.90
34877;DHT22;21086;44.780;17.194;2023-03-02T11:32:30;9.10;99.90
34877;DHT22;21086;44.780;17.194;2023-03-02T11:37:41;8.90;99.90
34877;DHT22;21086;44.780;17.194;2023-03-02T11:40:33;9.00;99.90
34877;DHT22;21086;44.780;17.194;2023-03-02T11:43:02;9.10;99.90
34877;DHT22;21086;44.780;17.194;2023-03-02T11:45:35;9.20;99.90
34877;DHT22;21086;44.780;17.194;2023-03-02T11:50:44;9.20;99.90
34877;DHT22;21086;44.780;17.194;2023-03-02T11:53:17;9.10;99.90
34877;DHT22;21086;44.780;17.194;2023-03-02T11:55:47;9.00;99.90
34877;DHT22;21086;44.780;17.194;2023-03-02T11:58:24;9.10;99.90
34877;DHT22;21086;44.780;17.194;2023-03-02T12:00:53;9.10;99.90
34877;DHT22;21086;44.780;17.194;2023-03-02T12:03:34;9.20;99.90
34877;DHT22;21086;44.780;17.194;2023-03-02T12:08:44;9.30;99.90
34877;DHT22;21086;44.780;17.194;2023-03-02T12:13:57;9.40;99.90
34877;DHT22;21086;44.780;17.194;2023-03-02T12:16:37;9.40;99.90
34877;DHT22;21086;44.780;17.194;2023-03-02T12:24:29;9.30;99.90
34877;DHT22;21086;44.780;17.194;2023-03-02T12:27:23;9.40;99.90
34877;DHT22;21086;44.780;17.194;2023-03-02T12:30:29;9.50;99.90
34877;DHT22;21086;44.780;17.194;2023-03-02T12:35:30;9.30;99.90
34877;DHT22;21086;44.780;17.194;2023-03-02T12:38:15;9.20;99.90
34877;DHT22;21086;44.780;17.194;2023-03-02T12:44:04;9.40;99.90
34877;DHT22;21086;44.780;17.194;2023-03-02T12:46:34;9.60;99.90
34877;DHT22;21086;44.780;17.194;2023-03-02T12:49:31;9.60;99.90
34877;DHT22;21086;44.780;17.194;2023-03-02T12:52:34;9.40;99.90
34877;DHT22;21086;44.780;17.194;2023-03-02T12:55:15;8.90;99.90
34877;DHT22;21086;44.780;17.194;2023-03-02T12:57:51;8.60;99.90
34877;DHT22;21086;44.780;17.194;2023-03-02T13:00:27;8.40;99.90
34877;DHT22;21086;44.780;17.194;2023-03-02T13:02:57;8.40;99.90
34877;DHT22;21086;44.780;17.194;2023-03-02T13:05:27;8.30;99.90
34877;DHT22;21086;44.780;17.194;2023-03-02T13:08:02;8.30;99.90
34877;DHT22;21086;44.780;17.194;2023-03-02T13:10:37;8.30;99.90
34877;DHT22;21086;44.780;17.194;2023-03-02T13:13:41;8.20;99.90
34877;DHT22;21086;44.780;17.194;2023-03-02T13:16:21;8.20;99.90
34877;DHT22;21086;44.780;17.194;2023-03-02T13:18:52;8.20;99.90
34877;DHT22;21086;44.780;17.194;2023-03-02T13:21:34;8.30;99.90
34877;DHT22;21086;44.780;17.194;2023-03-02T13:24:23;8.30;99.90
34877;DHT22;21086;44.780;17.194;2023-03-02T13:27:02;8.10;99.90
34877;DHT22;21086;44.780;17.194;2023-03-02T13:29:30;7.90;99.90
34877;DHT22;21086;44.780;17.194;2023-03-02T13:32:23;7.80;99.90
34877;DHT22;21086;44.780;17.194;2023-03-02T13:34:58;7.80;99.90
34877;DHT22;21086;44.780;17.194;2023-03-02T13:37:39;7.70;99.90
34877;DHT22;21086;44.780;17.194;2023-03-02T13:42:49;7.90;99.90
34877;DHT22;21086;44.780;17.194;2023-03-02T13:47:50;8.00;99.90
34877;DHT22;21086;44.780;17.194;2023-03-02T13:50:28;8.10;99.90
34877;DHT22;21086;44.780;17.194;2023-03-02T13:53:01;8.20;99.90
34877;DHT22;21086;44.780;17.194;2023-03-02T13:55:31;8.30;99.90
34877;DHT22;21086;44.780;17.194;2023-03-02T13:57:58;8.30;99.90
34877;DHT22;21086;44.780;17.194;2023-03-02T14:00:33;8.40;99.90
34877;DHT22;21086;44.780;17.194;2023-03-02T14:03:01;8.30;99.90
34877;DHT22;21086;44.780;17.194;2023-03-02T14:05:28;8.40;99.90
34877;DHT22;21086;44.780;17.194;2023-03-02T14:08:01;8.40;99.90
34877;DHT22;21086;44.780;17.194;2023-03-02T14:10:28;8.40;99.90
34877;DHT22;21086;44.780;17.194;2023-03-02T14:13:02;8.40;99.90
34877;DHT22;21086;44.780;17.194;2023-03-02T14:15:31;8.40;99.90
34877;DHT22;21086;44.780;17.194;2023-03-02T14:18:00;8.50;99.90
34877;DHT22;21086;44.780;17.194;2023-03-02T14:20:27;8.50;99.90
34877;DHT22;21086;44.780;17.194;2023-03-02T14:22:54;8.60;99.90
34877;DHT22;21086;44.780;17.194;2023-03-02T14:25:21;8.50;99.90
34877;DHT22;21086;44.780;17.194;2023-03-02T14:27:48;8.20;99.90
34877;DHT22;21086;44.780;17.194;2023-03-02T14:30:18;8.00;99.90
34877;DHT22;21086;44.780;17.194;2023-03-02T14:32:45;8.00;99.90
34877;DHT22;21086;44.780;17.194;2023-03-02T14:35:14;7.90;99.90
34877;DHT22;21086;44.780;17.194;2023-03-02T14:37:44;8.00;99.90
34877;DHT22;21086;44.780;17.194;2023-03-02T14:40:17;8.00;99.90
34877;DHT22;21086;44.780;17.194;2023-03-02T14:42:47;7.90;99.90
34877;DHT22;21086;44.780;17.194;2023-03-02T14:45:14;7.70;99.90
34877;DHT22;21086;44.780;17.194;2023-03-02T14:47:42;7.70;99.90
34877;DHT22;21086;44.780;17.194;2023-03-02T14:50:10;7.70;99.90
34877;DHT22;21086;44.780;17.194;2023-03-02T14:52:43;7.70;99.90
34877;DHT22;21086;44.780;17.194;2023-03-02T14:55:26;8.40;99.90
34877;DHT22;21086;44.780;17.194;2023-03-02T14:57:57;7.80;99.90
34877;DHT22;21086;44.780;17.194;2023-03-02T15:00:25;7.80;99.90
34877;DHT22;21086;44.780;17.194;2023-03-02T15:02:52;7.80;99.90
34877;DHT22;21086;44.780;17.194;2023-03-02T15:05:20;7.80;99.90
34877;DHT22;21086;44.780;17.194;2023-03-02T15:07:47;7.90;99.90
34877;DHT22;21086;44.780;17.194;2023-03-02T15:10:18;7.80;99.90
34877;DHT22;21086;44.780;17.194;2023-03-02T15:12:45;7.80;99.90
34877;DHT22;21086;44.780;17.194;2023-03-02T15:15:12;7.90;99.90
34877;DHT22;21086;44.780;17.194;2023-03-02T15:17:40;7.90;99.90
34877;DHT22;21086;44.780;17.194;2023-03-02T15:20:10;7.90;99.90
34877;DHT22;21086;44.780;17.194;2023-03-02T15:22:39;7.80;99.90
34877;DHT22;21086;44.780;17.194;2023-03-02T15:25:06;7.90;99.90
34877;DHT22;21086;44.780;17.194;2023-03-02T15:27:33;8.00;99.90
34877;DHT22;21086;44.780;17.194;2023-03-02T15:30:00;7.90;99.90
34877;DHT22;21086;44.780;17.194;2023-03-02T15:32:27;7.90;99.90
34877;DHT22;21086;44.780;17.194;2023-03-02T15:34:54;7.90;99.90
34877;DHT22;21086;44.780;17.194;2023-03-02T15:37:21;7.80;99.90
34877;DHT22;21086;44.780;17.194;2023-03-02T15:39:53;7.90;99.90
34877;DHT22;21086;44.780;17.194;2023-03-02T15:42:20;7.80;99.90
34877;DHT22;21086;44.780;17.194;2023-03-02T15:44:48;7.90;99.90
34877;DHT22;21086;44.780;17.194;2023-03-02T15:47:15;7.90;99.90
34877;DHT22;21086;44.780;17.194;2023-03-02T15:49:42;7.60;99.90
34877;DHT22;21086;44.780;17.194;2023-03-02T15:52:10;7.50;99.90
34877;DHT22;21086;44.780;17.194;2023-03-02T15:54:37;7.40;99.90
34877;DHT22;21086;44.780;17.194;2023-03-02T15:57:05;7.30;99.90
34877;DHT22;21086;44.780;17.194;2023-03-02T15:59:32;7.40;99.90
34877;DHT22;21086;44.780;17.194;2023-03-02T16:01:59;7.30;99.90
34877;DHT22;21086;44.780;17.194;2023-03-02T16:04:29;7.10;99.90
34877;DHT22;21086;44.780;17.194;2023-03-02T16:06:57;7.00;99.90
34877;DHT22;21086;44.780;17.194;2023-03-02T16:09:25;7.00;99.90
34877;DHT22;21086;44.780;17.194;2023-03-02T16:11:54;7.00;99.90
34877;DHT22;21086;44.780;17.194;2023-03-02T16:14:22;6.80;99.90
34877;DHT22;21086;44.780;17.194;2023-03-02T16:16:50;6.80;99.90
34877;DHT22;21086;44.780;17.194;2023-03-02T16:19:18;6.80;99.90
34877;DHT22;21086;44.780;17.194;2023-03-02T16:21:46;6.80;99.90
34877;DHT22;21086;44.780;17.194;2023-03-02T16:24:14;6.80;99.90
34877;DHT22;21086;44.780;17.194;2023-03-02T16:26:42;6.80;99.90
34877;DHT22;21086;44.780;17.194;2023-03-02T16:29:11;6.80;99.90
34877;DHT22;21086;44.780;17.194;2023-03-02T16:31:39;6.80;99.90
34877;DHT22;21086;44.780;17.194;2023-03-02T16:34:07;6.80;99.90
34877;DHT22;21086;44.780;17.194;2023-03-02T16:36:36;6.70;99.90
34877;DHT22;21086;44.780;17.194;2023-03-02T16:39:04;6.60;99.90
34877;DHT22;21086;44.780;17.194;2023-03-02T16:41:32;6.40;99.90
34877;DHT22;21086;44.780;17.194;2023-03-02T16:43:59;6.50;99.90
34877;DHT22;21086;44.780;17.194;2023-03-02T16:46:28;6.70;99.90